• Join FlightAware (Why Join?)
  • Login
  • US Flag 
03:55PM EDT


 

Airport Tracker/Info


-or-


 

Live Flight TrackerFlight Track Log ✈ ASQ5958 ✈ 26-Jul-2014 ✈ KBNA - KEWR

Flight Track Log - Related Links

Times and Time Zones

All times are in EDT time to prevent confusion due to time zone crossing. See the ASQ5958 flight status page for this flight to view local times or setup timezone preferences in your user account.

Time Position Orientation Groundspeed Altitude Reporting Facility
EDT Latitude Longitude Course Direction KTS MPH feet Rate Location/Type
06:55AM 36.1333 -86.7000 68° East 156 180 1,200  Level Nashville TRACON
06:56AM 36.1500 -86.7500 292° West 183 211 3,200 1,860 Climbing Nashville TRACON
06:57AM 36.2000 -86.7333 15° North 235 270 5,200 1,920 Climbing Nashville TRACON
06:58AM 36.1922 -86.1217 80° East  Level FlightAware Approximate
06:58AM 36.2000 -86.6500 90° East 248 285 7,100  Level Nashville TRACON
06:59AM 36.2297 -85.9924 64° Northeast  Level FlightAware Approximate
06:59AM 36.2000 -86.5831 90° East 241 277 8,600  Level Indianapolis Center
07:00AM 36.2777 -85.8669 68° East  Level FlightAware Approximate
07:00AM 36.1997 -86.4947 90° East 249 287 10,300  Level Indianapolis Center
07:01AM 36.2000 -86.3994 90° East 269 310 11,700 1,320 Climbing Indianapolis Center
07:02AM 36.1997 -86.2939 90° East 297 342 13,100 1,440 Climbing Indianapolis Center
07:03AM 36.2000 -86.1858 90° East 308 354 14,700 1,500 Climbing Indianapolis Center
07:04AM 36.2014 -86.0756 89° East 315 362 16,200 1,440 Climbing Indianapolis Center
07:05AM 36.2428 -85.9783 62° Northeast 313 360 17,700 1,380 Climbing Memphis Center
07:06AM 36.2850 -85.8828 61° Northeast 314 361 19,100 1,380 Climbing Memphis Center
07:07AM 36.3261 -85.7906 61° Northeast 314 361 20,600 1,380 Climbing Memphis Center
07:08AM 36.3694 -85.6986 60° Northeast 313 360 22,000 1,320 Climbing Memphis Center
07:09AM 36.4153 -85.6042 59° Northeast 314 361 23,300 1,260 Climbing Memphis Center
07:10AM 36.4606 -85.5086 59° Northeast 315 362 24,600 1,260 Climbing Memphis Center
07:11AM 36.5061 -85.4133 59° Northeast 316 364 25,900 1,260 Climbing Memphis Center
07:12AM 36.5519 -85.3164 60° Northeast 320 368 27,200 1,200 Climbing Memphis Center
07:13AM 36.5969 -85.2186 60° Northeast 322 371 28,400 1,260 Climbing Indianapolis Center
07:14AM 36.6422 -85.0925 66° East 335 386 29,900 1,320 Climbing Indianapolis Center
07:15AM 36.6753 -84.9839 69° East 336 387 31,100 1,020 Climbing Indianapolis Center
07:16AM 36.7097 -84.8744 69° East 336 387 32,000 780 Climbing Indianapolis Center
07:17AM 36.7436 -84.7617 69° East 342 394 32,800 780 Climbing Indianapolis Center
07:18AM 36.7778 -84.6447 70° East 353 406 33,700 780 Climbing Indianapolis Center
07:19AM 36.8150 -84.5283 68° East 357 411 34,500 600 Climbing Indianapolis Center
07:20AM 36.8489 -84.4136 70° East 366 421 35,000 240 Climbing Indianapolis Center
07:21AM 36.8867 -84.2875 69° East 380 437 35,000  Level Indianapolis Center
07:22AM 36.9258 -84.1575 69° East 394 453 35,000  Level Indianapolis Center
07:23AM 36.9636 -84.0294 70° East 394 453 35,000  Level Indianapolis Center
07:24AM 37.0083 -83.8803 69° East 394 453 35,000  Level Indianapolis Center
07:25AM 37.0461 -83.7519 70° East 393 452 35,000  Level Indianapolis Center
07:26AM 37.0825 -83.6256 70° East 391 450 35,000  Level Indianapolis Center
07:27AM 37.1200 -83.4961 70° East 390 449 35,000  Level Indianapolis Center
07:28AM 37.1575 -83.3700 70° East 389 448 35,000  Level Indianapolis Center
07:29AM 37.1944 -83.2436 70° East 387 445 35,000  Level Indianapolis Center
07:30AM 37.2308 -83.1156 70° East 387 445 35,000  Level Indianapolis Center
07:31AM 37.2681 -82.9872 70° East 387 445 35,000  Level Indianapolis Center
07:32AM 37.3039 -82.8586 71° East 387 445 35,000  Level Indianapolis Center
07:33AM 37.3406 -82.7314 70° East 387 445 35,000  Level Indianapolis Center
07:34AM 37.3758 -82.6042 71° East 386 444 35,000  Level Indianapolis Center
07:35AM 37.4114 -82.4783 70° East 385 443 35,000  Level Indianapolis Center
07:36AM 37.4467 -82.3508 71° East 385 443 35,000  Level Indianapolis Center
07:37AM 37.4819 -82.2231 71° East 385 443 35,000  Level Indianapolis Center
07:38AM 37.5178 -82.0944 71° East 385 443 35,000  Level Indianapolis Center
07:39AM 37.5597 -81.9433 71° East 387 445 35,000  Level Indianapolis Center
07:40AM 37.5950 -81.8117 71° East 390 449 35,000  Level Indianapolis Center
07:41AM 37.6314 -81.6803 71° East 394 453 35,000  Level Indianapolis Center
07:42AM 37.6667 -81.5486 71° East 394 453 35,000  Level Indianapolis Center
07:43AM 37.6975 -81.4325 71° East 394 453 35,000  Level Indianapolis Center
07:44AM 37.7336 -81.3008 71° East 395 455 35,000  Level Indianapolis Center
07:45AM 37.7756 -81.1425 71° East 395 455 35,000  Level Indianapolis Center
07:46AM 37.7889 -81.0019 83° East 399 459 35,000  Level Indianapolis Center
07:47AM 37.7978 -80.8583 85° East 404 465 35,000  Level Indianapolis Center
07:49AM 37.8069 -80.7161 85° East 404 465 35,000  Level Indianapolis Center
07:50AM 37.8169 -80.5742 85° East 404 465 35,000  Level Indianapolis Center
07:51AM 37.8253 -80.4300 86° East 405 466 35,000  Level Indianapolis Center
07:52AM 37.8344 -80.2869 85° East 405 466 35,000  Level Indianapolis Center
07:53AM 37.8428 -80.1431 86° East 405 466 35,000  Level Indianapolis Center
07:54AM 37.8519 -79.9992 85° East 406 467 35,000  Level Indianapolis Center
07:55AM 37.8608 -79.8533 86° East 410 472 35,000  Level Indianapolis Center
07:56AM 37.8692 -79.7067 86° East 411 473 35,000  Level Indianapolis Center
07:57AM 37.8772 -79.5600 86° East 412 474 35,000  Level Indianapolis Center
07:58AM 37.8889 -79.3533 86° East 415 478 35,000  Level Washington Center
07:59AM 37.8967 -79.2061 86° East 415 478 35,000  Level Washington Center
08:00AM 37.9067 -79.0583 85° East 415 478 35,000  Level Washington Center
08:01AM 37.9247 -78.9144 81° East 415 478 35,000  Level Washington Center
08:02AM 37.9425 -78.7681 81° East 416 479 35,000  Level Washington Center
08:03AM 37.9633 -78.5931 81° East 418 481 35,000  Level Washington Center
08:04AM 37.9794 -78.4458 82° East 418 481 35,000  Level Washington Center
08:05AM 37.9967 -78.2992 81° East 419 482 35,000  Level Washington Center
08:06AM 38.0167 -78.1569 80° East 420 483 35,000  Level Washington Center
08:07AM 38.0742 -78.0322 60° Northeast 416 479 35,000  Level Washington Center
08:08AM 38.1358 -77.9097 57° Northeast 413 475 35,000  Level Washington Center
08:09AM 38.2089 -77.7614 58° Northeast 414 476 35,000  Level Washington Center
08:10AM 38.2717 -77.6381 57° Northeast 414 476 35,000  Level Washington Center
08:11AM 38.3328 -77.5119 58° Northeast 418 481 35,000  Level Washington Center
08:12AM 38.3947 -77.3858 58° Northeast 418 481 35,000  Level Washington Center
08:14AM 38.4569 -77.2581 58° Northeast 421 484 35,000  Level Washington Center
08:15AM 38.5317 -77.1064 58° Northeast 422 486 35,000  Level Washington Center
08:16AM 38.5933 -76.9783 58° Northeast 422 486 35,000  Level Washington Center
08:17AM 38.6558 -76.8497 58° Northeast 425 489 35,000 -720 Level Washington Center
08:18AM 38.7236 -76.7250 55° Northeast 427 491 33,600 -1,440 Descending Washington Center
08:19AM 38.8097 -76.6256 42° Northeast 420 483 32,100 -1,680 Descending Washington Center
08:20AM 38.9081 -76.5114 42° Northeast 403 464 30,200 -1,620 Descending Washington Center
08:21AM 38.9917 -76.4164 41° Northeast 403 464 28,700 -1,380 Descending Washington Center
08:22AM 39.0742 -76.3186 43° Northeast 403 464 27,400 -1,140 Descending Washington Center
08:23AM 39.1575 -76.2231 42° Northeast 403 464 26,400 -1,080 Descending Washington Center
08:24AM 39.2436 -76.1208 43° Northeast 387 445 25,200 -1,080 Descending Washington Center
08:25AM 39.3244 -76.0244 43° Northeast 389 448 24,200 -960 Descending Washington Center
08:26AM 39.4086 -75.9278 42° Northeast 405 466 23,200 -600 Descending Washington Center
08:27AM 39.4986 -75.8228 42° Northeast 430 495 23,000 -120 Descending Washington Center
08:28AM 39.5878 -75.7161 43° Northeast 436 502 23,000  Level Washington Center
08:29AM 39.6933 -75.5906 42° Northeast 432 497 23,000 -960 Level Washington Center
08:30AM 39.7808 -75.4858 43° Northeast 429 494 21,000 -2,400 Descending Washington Center
08:31AM 39.8675 -75.3814 43° Northeast 426 490 18,100 -2,640 Descending Washington Center
08:32AM 39.9517 -75.2794 43° Northeast 410 472 15,500 -2,460 Descending Washington Center
08:33AM 40.0303 -75.1828 43° Northeast 389 448 13,000 -2,220 Descending Washington Center
08:34AM 40.1053 -75.0900 43° Northeast 372 428 11,100 -1,260 Descending Washington Center
08:35AM 40.1769 -75.0025 43° Northeast 350 403 10,400 -1,260 Descending Washington Center
08:36AM 40.2333 -74.9500 35° Northeast 302 348 9,100 -1,740 Descending New York TRACON
08:37AM 40.2708 -74.8850 53° Northeast 294 338 8,000 -600 Descending New York Center
08:38AM 40.3358 -74.8233 36° Northeast 280 322 8,000 -480 Level New York Center
08:39AM 40.4069 -74.7669 31° Northeast 280 322 7,100 -960 Descending New York Center
08:40AM 40.4753 -74.7239 26° Northeast 273 314 6,100 -540 Descending New York Center
08:41AM 40.5492 -74.6875 21° North 274 315 6,000 -60 Descending New York Center
08:42AM 40.6247 -74.6503 21° North 272 313 6,000  Level New York Center
08:43AM 40.6931 -74.6050 27° Northeast 273 314 6,000  Level New York Center
08:44AM 40.7589 -74.5539 30° Northeast 274 315 6,000 -540 Level New York Center
08:45AM 40.8139 -74.4706 49° Northeast 281 323 5,000 -960 Descending New York Center
08:46AM 40.8639 -74.3942 49° Northeast 278 320 4,100 -540 Descending New York Center
08:47AM 40.9167 -74.3333 41° Northeast 269 310 4,000 -60 Descending New York TRACON
08:48AM 40.9000 -74.2333 102° East 277 319 4,000 -300 Level New York TRACON
08:49AM 40.8833 -74.1500 105° East 261 300 3,400 -600 Descending New York TRACON
08:50AM 40.8333 -74.0833 135° Southeast 234 269 2,800 -840 Descending New York TRACON
08:51AM 40.7833 -74.1167 207° Southwest 212 244 1,800 -900 Descending New York TRACON
08:52AM 40.7500 -74.1333 201° Southwest 150 173 1,100 -780 Descending New York TRACON
08:53AM 40.7000 -74.1500 194° South 134 154 300 -780 Descending New York TRACON
08:55AM 40.6833 -74.1667 162° South  Level FlightAware Approximate